الصفحة الرئيسية
METAR-TAF:

METAR-TAF

مطار :

يوكسكوفا, تركيا

دائرة عرض: 37-33-06N, خط طول: 44-14-01E, ارتفاع: 1950 متر

مراقبة الطقس الحالي

تاريخ ووقت الإصدار 22 دقيقة قبل الساعة 02:50UTC
ريح 1 عقدةمن اتجاهات متغيرة
درجة الحرارة 10°درجة مئوية
الرطوبة 87%
ضغط 1025 hPa
الرؤية 10 كم أو أكثر
غيوم قليلة على ارتفاع 4000 قدم

METAR: LTCW 190250Z VRB01KT 9999 FEW040 10/08 Q1025

زمن: 06:12 (03:12 UTC)

توقعات

تاريخ ووقت الإصدار 1ساعة و 32 دقيقة قبل الساعة 01:40UTC
التوقعات صالحة من19 الساعة 03 UTC إلى 19 الساعة 12 UTC
ريح 7 عقدة من الغرب/الشمال الغربي
الرؤية 10 كم أو أكثر
غيوم قليلة على ارتفاع 4000 قدم
نظرية الاحتمالات 30% :
مؤقت
من 19 الساعة 09 UTC إلى 19 الساعة 12 UTC
غيوم قليلة على ارتفاع 2000 قدم, مزنة ركامية.
غيوم مفككة على ارتفاع 3000 قدم
عاصفة رعدية, مطر خفيف,

TAF: LTCW 190140Z 1903/1912 30007KT 9999 FEW040 PROB30 TEMPO 1909/1912 -TSRA FEW020CB BKN030

أرصاد الطقس والتوقعات من أكثر من 4000 مطار (تقارير الطقس للمطار METAR والتنبؤ بالطقس بالمطارTAF).

المحطات المتاحة هي النقط الصفراء والحمراء على الخريطة.

حرك المؤشر فوق النقطة لمعرفة اسم المحطة.

ثم انقر لمعرفة أرصاد وتوقعات الطقس.

لتغيير الخارطة: اضغط على الأزرار الخضراء مع رمز الصليب الأسود للتكبير. على الزر الأخضر مع شرطة للتصغير، أو على الأسهم الخضراء للخرائط المجاورة.


METAR-TAF: